Terminal Aerodrome Forecast
Issued by NWS Newport/Morehead City, NC

Home | Current Version | Previous Version | Graphics & Text | Print | Product List | Glossary On
Versions: 1 2 3 4 5 6 7 8 9 10 11 12
000
FTUS42 KMHX 112321
TAFEWN
TAF
KEWN 112321Z 1200/1224 VRB03KT P6SM SKC
     FM121000 21007KT P6SM FEW250
     FM121600 25011KT P6SM SCT200
     FM122000 28013KT P6SM SCT035=

USA.gov is the U.S. government's official web portal to all federal, state and local government web resources and services.